sensor_id;sensor_type;location;lat;lon;timestamp;pressure;altitude;pressure_sealevel;temperature;humidity
75418;BME280;63997;52.112;5.420;2024-02-15T00:02:24;101677.63;;;11.47;100.00
75418;BME280;63997;52.112;5.420;2024-02-15T00:04:51;101675.75;;;11.47;100.00
75418;BME280;63997;52.112;5.420;2024-02-15T00:07:17;101672.28;;;11.47;100.00
75418;BME280;63997;52.112;5.420;2024-02-15T00:09:49;101674.19;;;11.46;100.00
75418;BME280;63997;52.112;5.420;2024-02-15T00:12:16;101670.72;;;11.46;100.00
75418;BME280;63997;52.112;5.420;2024-02-15T00:14:42;101672.59;;;11.45;100.00
75418;BME280;63997;52.112;5.420;2024-02-15T00:17:09;101671.00;;;11.44;100.00
75418;BME280;63997;52.112;5.420;2024-02-15T00:19:36;101669.13;;;11.45;100.00
75418;BME280;63997;52.112;5.420;2024-02-15T00:22:03;101667.56;;;11.44;100.00
75418;BME280;63997;52.112;5.420;2024-02-15T00:24:30;101671.31;;;11.43;100.00
75418;BME280;63997;52.112;5.420;2024-02-15T00:26:57;101668.66;;;11.43;100.00
75418;BME280;63997;52.112;5.420;2024-02-15T00:29:24;101668.19;;;11.41;100.00
75418;BME280;63997;52.112;5.420;2024-02-15T00:31:52;101676.97;;;11.41;100.00
75418;BME280;63997;52.112;5.420;2024-02-15T00:34:19;101676.19;;;11.41;100.00
75418;BME280;63997;52.112;5.420;2024-02-15T00:36:47;101671.13;;;11.39;100.00
75418;BME280;63997;52.112;5.420;2024-02-15T00:39:13;101670.34;;;11.38;100.00
75418;BME280;63997;52.112;5.420;2024-02-15T00:41:40;101667.69;;;11.38;100.00
75418;BME280;63997;52.112;5.420;2024-02-15T00:44:09;101667.69;;;11.38;100.00
75418;BME280;63997;52.112;5.420;2024-02-15T00:46:38;101667.69;;;11.38;100.00
75418;BME280;63997;52.112;5.420;2024-02-15T00:49:05;101664.56;;;11.36;100.00
75418;BME280;63997;52.112;5.420;2024-02-15T00:51:34;101656.56;;;11.36;100.00
75418;BME280;63997;52.112;5.420;2024-02-15T00:54:01;101659.22;;;11.36;100.00
75418;BME280;63997;52.112;5.420;2024-02-15T00:56:28;101663.75;;;11.36;100.00
75418;BME280;63997;52.112;5.420;2024-02-15T00:58:58;101655.78;;;11.36;100.00
75418;BME280;63997;52.112;5.420;2024-02-15T01:01:27;101653.91;;;11.36;100.00
75418;BME280;63997;52.112;5.420;2024-02-15T01:03:53;101660.78;;;11.37;100.00
75418;BME280;63997;52.112;5.420;2024-02-15T01:06:20;101654.69;;;11.37;100.00
75418;BME280;63997;52.112;5.420;2024-02-15T01:08:47;101662.19;;;11.35;100.00
75418;BME280;63997;52.112;5.420;2024-02-15T01:11:13;101651.53;;;11.35;100.00
75418;BME280;63997;52.112;5.420;2024-02-15T01:13:40;101657.66;;;11.35;100.00
75418;BME280;63997;52.112;5.420;2024-02-15T01:16:07;101650.75;;;11.34;100.00
75418;BME280;63997;52.112;5.420;2024-02-15T01:18:34;101657.66;;;11.35;100.00
75418;BME280;63997;52.112;5.420;2024-02-15T01:21:01;101653.13;;;11.36;100.00
75418;BME280;63997;52.112;5.420;2024-02-15T01:23:28;101651.53;;;11.35;100.00
75418;BME280;63997;52.112;5.420;2024-02-15T01:25:55;101651.53;;;11.35;100.00
75418;BME280;63997;52.112;5.420;2024-02-15T01:28:21;101644.34;;;11.35;100.00
75418;BME280;63997;52.112;5.420;2024-02-15T01:30:48;101651.53;;;11.35;100.00
75418;BME280;63997;52.112;5.420;2024-02-15T01:33:15;101644.66;;;11.34;100.00
75418;BME280;63997;52.112;5.420;2024-02-15T01:35:43;101644.34;;;11.35;100.00
75418;BME280;63997;52.112;5.420;2024-02-15T01:38:10;101644.03;;;11.37;100.00
75418;BME280;63997;52.112;5.420;2024-02-15T01:40:37;101643.25;;;11.36;100.00
75418;BME280;63997;52.112;5.420;2024-02-15T01:43:03;101645.59;;;11.38;100.00
75418;BME280;63997;52.112;5.420;2024-02-15T01:45:30;101646.38;;;11.38;100.00
75418;BME280;63997;52.112;5.420;2024-02-15T01:47:57;101639.47;;;11.37;100.00
75418;BME280;63997;52.112;5.420;2024-02-15T01:50:25;101642.16;;;11.37;100.00
75418;BME280;63997;52.112;5.420;2024-02-15T01:52:54;101646.38;;;11.38;100.00
75418;BME280;63997;52.112;5.420;2024-02-15T01:55:23;101643.72;;;11.38;100.00
75418;BME280;63997;52.112;5.420;2024-02-15T01:57:50;101648.75;;;11.40;100.00
75418;BME280;63997;52.112;5.420;2024-02-15T02:00:20;101637.31;;;11.39;100.00
75418;BME280;63997;52.112;5.420;2024-02-15T02:02:47;101632.00;;;11.39;100.00
75418;BME280;63997;52.112;5.420;2024-02-15T02:05:14;101630.41;;;11.38;100.00
75418;BME280;63997;52.112;5.420;2024-02-15T02:07:41;101626.66;;;11.39;100.00
75418;BME280;63997;52.112;5.420;2024-02-15T02:10:08;101627.44;;;11.40;100.00
75418;BME280;63997;52.112;5.420;2024-02-15T02:12:38;101622.13;;;11.40;100.00
75418;BME280;63997;52.112;5.420;2024-02-15T02:15:07;101621.34;;;11.39;100.00
75418;BME280;63997;52.112;5.420;2024-02-15T02:17:34;101627.44;;;11.40;100.00
75418;BME280;63997;52.112;5.420;2024-02-15T02:20:02;101622.91;;;11.41;100.00
75418;BME280;63997;52.112;5.420;2024-02-15T02:22:35;101610.69;;;11.39;100.00
75418;BME280;63997;52.112;5.420;2024-02-15T02:25:06;101608.31;;;11.38;100.00
75418;BME280;63997;52.112;5.420;2024-02-15T02:27:35;101609.72;;;11.35;100.00
75418;BME280;63997;52.112;5.420;2024-02-15T02:30:12;101610.81;;;11.34;100.00
75418;BME280;63997;52.112;5.420;2024-02-15T02:32:43;101611.88;;;11.33;100.00
75418;BME280;63997;52.112;5.420;2024-02-15T02:35:13;101605.78;;;11.33;100.00
75418;BME280;63997;52.112;5.420;2024-02-15T02:37:42;101601.22;;;11.33;100.00
75418;BME280;63997;52.112;5.420;2024-02-15T02:40:09;101601.53;;;11.32;100.00
75418;BME280;63997;52.112;5.420;2024-02-15T02:42:54;101602.94;;;11.29;100.00
75418;BME280;63997;52.112;5.420;2024-02-15T02:45:27;101601.38;;;11.28;100.00
75418;BME280;63997;52.112;5.420;2024-02-15T02:47:54;101602.28;;;11.24;100.00
75418;BME280;63997;52.112;5.420;2024-02-15T02:50:21;101617.47;;;11.23;100.00
75418;BME280;63997;52.112;5.420;2024-02-15T02:52:49;101610.56;;;11.22;100.00
75418;BME280;63997;52.112;5.420;2024-02-15T02:55:16;101601.50;;;11.23;100.00
75418;BME280;63997;52.112;5.420;2024-02-15T02:57:43;101601.50;;;11.23;100.00
75418;BME280;63997;52.112;5.420;2024-02-15T03:00:12;101598.34;;;11.21;100.00
75418;BME280;63997;52.112;5.420;2024-02-15T03:02:43;101605.06;;;11.19;100.00
75418;BME280;63997;52.112;5.420;2024-02-15T03:05:10;101603.19;;;11.19;100.00
75418;BME280;63997;52.112;5.420;2024-02-15T03:07:39;101603.19;;;11.19;100.00
75418;BME280;63997;52.112;5.420;2024-02-15T03:10:09;101601.31;;;11.20;100.00
75418;BME280;63997;52.112;5.420;2024-02-15T03:12:36;101599.44;;;11.20;100.00
75418;BME280;63997;52.112;5.420;2024-02-15T03:15:04;101603.66;;;11.21;100.00
75418;BME280;63997;52.112;5.420;2024-02-15T03:17:31;101602.28;;;11.24;100.00
75418;BME280;63997;52.112;5.420;2024-02-15T03:19:58;101590.84;;;11.23;100.00
75418;BME280;63997;52.112;5.420;2024-02-15T03:22:25;101592.44;;;11.24;100.00
75418;BME280;63997;52.112;5.420;2024-02-15T03:24:52;101596.97;;;11.24;100.00
75418;BME280;63997;52.112;5.420;2024-02-15T03:27:19;101591.94;;;11.22;100.00
75418;BME280;63997;52.112;5.420;2024-02-15T03:29:49;101593.81;;;11.22;100.00
75418;BME280;63997;52.112;5.420;2024-02-15T03:32:16;101594.59;;;11.22;100.00
75418;BME280;63997;52.112;5.420;2024-02-15T03:34:43;101587.22;;;11.19;100.00
75418;BME280;63997;52.112;5.420;2024-02-15T03:37:09;101588.47;;;11.22;100.00
75418;BME280;63997;52.112;5.420;2024-02-15T03:39:36;101583.78;;;11.19;100.00
75418;BME280;63997;52.112;5.420;2024-02-15T03:42:03;101577.66;;;11.18;100.00
75418;BME280;63997;52.112;5.420;2024-02-15T03:44:31;101578.25;;;11.15;100.00
75418;BME280;63997;52.112;5.420;2024-02-15T03:46:57;101591.56;;;11.15;100.00
75418;BME280;63997;52.112;5.420;2024-02-15T03:49:25;101581.25;;;11.13;100.00
75418;BME280;63997;52.112;5.420;2024-02-15T03:51:51;101581.25;;;11.13;100.00
75418;BME280;63997;52.112;5.420;2024-02-15T03:54:21;101577.78;;;11.13;100.00
75418;BME280;63997;52.112;5.420;2024-02-15T03:56:50;101583.59;;;11.15;100.00
75418;BME280;63997;52.112;5.420;2024-02-15T03:59:21;101578.88;;;11.12;100.00
75418;BME280;63997;52.112;5.420;2024-02-15T04:01:54;101585.28;;;11.11;100.00
75418;BME280;63997;52.112;5.420;2024-02-15T04:04:21;101580.25;;;11.09;100.00
75418;BME280;63997;52.112;5.420;2024-02-15T04:06:51;101571.19;;;11.10;100.00
75418;BME280;63997;52.112;5.420;2024-02-15T04:09:18;101576.22;;;11.12;100.00
75418;BME280;63997;52.112;5.420;2024-02-15T04:11:49;101574.63;;;11.11;100.00
75418;BME280;63997;52.112;5.420;2024-02-15T04:14:20;101578.88;;;11.12;100.00
75418;BME280;63997;52.112;5.420;2024-02-15T04:16:46;101580.47;;;11.13;100.00
75418;BME280;63997;52.112;5.420;2024-02-15T04:19:13;101571.38;;;11.14;100.00
75418;BME280;63997;52.112;5.420;2024-02-15T04:21:40;101576.38;;;11.16;100.00
75418;BME280;63997;52.112;5.420;2024-02-15T04:24:06;101583.59;;;11.15;100.00
75418;BME280;63997;52.112;5.420;2024-02-15T04:26:33;101572.94;;;11.15;100.00
75418;BME280;63997;52.112;5.420;2024-02-15T04:29:00;101573.44;;;11.17;100.00
75418;BME280;63997;52.112;5.420;2024-02-15T04:31:26;101567.03;;;11.18;100.00
75418;BME280;63997;52.112;5.420;2024-02-15T04:33:54;101570.78;;;11.17;100.00
75418;BME280;63997;52.112;5.420;2024-02-15T04:36:21;101564.03;;;11.20;100.00
75418;BME280;63997;52.112;5.420;2024-02-15T04:38:52;101565.13;;;11.19;100.00
75418;BME280;63997;52.112;5.420;2024-02-15T04:41:19;101568.59;;;11.19;100.00
75418;BME280;63997;52.112;5.420;2024-02-15T04:43:51;101562.94;;;11.21;100.00
75418;BME280;63997;52.112;5.420;2024-02-15T04:46:22;101571.72;;;11.21;100.00
75418;BME280;63997;52.112;5.420;2024-02-15T04:48:49;101561.06;;;11.21;100.00
75418;BME280;63997;52.112;5.420;2024-02-15T04:51:16;101562.34;;;11.24;100.00
75418;BME280;63997;52.112;5.420;2024-02-15T04:53:43;101556.53;;;11.22;100.00
75418;BME280;63997;52.112;5.420;2024-02-15T04:56:12;101558.13;;;11.23;100.00
75418;BME280;63997;52.112;5.420;2024-02-15T04:58:43;101558.91;;;11.23;100.00
75418;BME280;63997;52.112;5.420;2024-02-15T05:01:15;101558.91;;;11.23;100.00
75418;BME280;63997;52.112;5.420;2024-02-15T05:03:43;101547.47;;;11.23;100.00
75418;BME280;63997;52.112;5.420;2024-02-15T05:06:10;101542.94;;;11.23;100.00
75418;BME280;63997;52.112;5.420;2024-02-15T05:08:39;101545.59;;;11.23;100.00
75418;BME280;63997;52.112;5.420;2024-02-15T05:11:10;101542.94;;;11.23;100.00
75418;BME280;63997;52.112;5.420;2024-02-15T05:13:46;101540.28;;;11.23;100.00
75418;BME280;63997;52.112;5.420;2024-02-15T05:16:13;101546.38;;;11.24;100.00
75418;BME280;63997;52.112;5.420;2024-02-15T05:18:39;101549.03;;;11.24;100.00
75418;BME280;63997;52.112;5.420;2024-02-15T05:21:06;101556.72;;;11.25;100.00
75418;BME280;63997;52.112;5.420;2024-02-15T05:23:37;101564.69;;;11.25;100.00
75418;BME280;63997;52.112;5.420;2024-02-15T05:26:06;101561.25;;;11.25;100.00
75418;BME280;63997;52.112;5.420;2024-02-15T05:28:34;101552.97;;;11.26;100.00
75418;BME280;63997;52.112;5.420;2024-02-15T05:31:20;101562.81;;;11.26;100.00
75418;BME280;63997;52.112;5.420;2024-02-15T05:33:47;101554.53;;;11.27;100.00
75418;BME280;63997;52.112;5.420;2024-02-15T05:36:15;101555.03;;;11.29;100.00
75418;BME280;63997;52.112;5.420;2024-02-15T05:38:42;101543.59;;;11.29;100.00
75418;BME280;63997;52.112;5.420;2024-02-15T05:41:11;101529.97;;;11.30;100.00
75418;BME280;63997;52.112;5.420;2024-02-15T05:43:40;101515.88;;;11.30;100.00
75418;BME280;63997;52.112;5.420;2024-02-15T05:46:10;101496.91;;;11.31;100.00
75418;BME280;63997;52.112;5.420;2024-02-15T05:48:37;101484.06;;;11.33;100.00
75418;BME280;63997;52.112;5.420;2024-02-15T05:51:05;101457.44;;;11.33;100.00
75418;BME280;63997;52.112;5.420;2024-02-15T05:53:33;101466.50;;;11.32;100.00
75418;BME280;63997;52.112;5.420;2024-02-15T05:56:04;101487.81;;;11.32;100.00
75418;BME280;63997;52.112;5.420;2024-02-15T05:58:31;101494.25;;;11.31;100.00
75418;BME280;63997;52.112;5.420;2024-02-15T06:00:59;101492.38;;;11.32;100.00
75418;BME280;63997;52.112;5.420;2024-02-15T06:03:28;101493.94;;;11.33;100.00
75418;BME280;63997;52.112;5.420;2024-02-15T06:05:55;101492.03;;;11.33;100.00
75418;BME280;63997;52.112;5.420;2024-02-15T06:08:26;101494.72;;;11.33;100.00
75418;BME280;63997;52.112;5.420;2024-02-15T06:10:53;101501.13;;;11.32;100.00
75418;BME280;63997;52.112;5.420;2024-02-15T06:13:20;101501.91;;;11.33;100.00
75418;BME280;63997;52.112;5.420;2024-02-15T06:15:47;101493.94;;;11.33;100.00
75418;BME280;63997;52.112;5.420;2024-02-15T06:18:19;101497.38;;;11.33;100.00
75418;BME280;63997;52.112;5.420;2024-02-15T06:20:48;101490.97;;;11.34;100.00
75418;BME280;63997;52.112;5.420;2024-02-15T06:23:19;101497.38;;;11.33;100.00
75418;BME280;63997;52.112;5.420;2024-02-15T06:25:46;101504.56;;;11.33;100.00
75418;BME280;63997;52.112;5.420;2024-02-15T06:28:17;101508.03;;;11.33;100.00
75418;BME280;63997;52.112;5.420;2024-02-15T06:31:10;101509.63;;;11.34;100.00
75418;BME280;63997;52.112;5.420;2024-02-15T06:33:56;101514.16;;;11.34;100.00
75418;BME280;63997;52.112;5.420;2024-02-15T06:36:53;101508.03;;;11.33;100.00
75418;BME280;63997;52.112;5.420;2024-02-15T06:39:38;101506.19;;;11.34;100.00
75418;BME280;63997;52.112;5.420;2024-02-15T06:42:10;101503.19;;;11.35;100.00
75418;BME280;63997;52.112;5.420;2024-02-15T06:44:38;101496.31;;;11.34;100.00
75418;BME280;63997;52.112;5.420;2024-02-15T06:47:07;101500.53;;;11.35;100.00
75418;BME280;63997;52.112;5.420;2024-02-15T06:49:38;101488.78;;;11.36;100.00
75418;BME280;63997;52.112;5.420;2024-02-15T06:52:08;101482.34;;;11.37;100.00
75418;BME280;63997;52.112;5.420;2024-02-15T06:54:35;101486.91;;;11.37;100.00
75418;BME280;63997;52.112;5.420;2024-02-15T06:57:02;101485.03;;;11.37;100.00
75418;BME280;63997;52.112;5.420;2024-02-15T06:59:31;101482.03;;;11.39;100.00
75418;BME280;63997;52.112;5.420;2024-02-15T07:02:01;101482.03;;;11.39;100.00
75418;BME280;63997;52.112;5.420;2024-02-15T07:04:31;101486.59;;;11.38;100.00
75418;BME280;63997;52.112;5.420;2024-02-15T07:06:59;101483.47;;;11.36;100.00
75418;BME280;63997;52.112;5.420;2024-02-15T07:09:26;101487.69;;;11.37;100.00
75418;BME280;63997;52.112;5.420;2024-02-15T07:11:54;101499.13;;;11.38;100.00
75418;BME280;63997;52.112;5.420;2024-02-15T07:14:21;101503.34;;;11.39;100.00
75418;BME280;63997;52.112;5.420;2024-02-15T07:16:49;101504.94;;;11.40;100.00
75418;BME280;63997;52.112;5.420;2024-02-15T07:19:16;101511.06;;;11.41;100.00
75418;BME280;63997;52.112;5.420;2024-02-15T07:21:44;101516.38;;;11.41;100.00
75418;BME280;63997;52.112;5.420;2024-02-15T07:24:12;101493.97;;;11.42;100.00
75418;BME280;63997;52.112;5.420;2024-02-15T07:26:41;101493.97;;;11.42;100.00
75418;BME280;63997;52.112;5.420;2024-02-15T07:29:08;101501.97;;;11.42;100.00
75418;BME280;63997;52.112;5.420;2024-02-15T07:31:36;101511.50;;;11.43;100.00
75418;BME280;63997;52.112;5.420;2024-02-15T07:34:02;101525.63;;;11.43;100.00
75418;BME280;63997;52.112;5.420;2024-02-15T07:36:33;101533.59;;;11.43;100.00
75418;BME280;63997;52.112;5.420;2024-02-15T07:39:00;101542.38;;;11.44;100.00
75418;BME280;63997;52.112;5.420;2024-02-15T07:41:29;101542.38;;;11.44;100.00
75418;BME280;63997;52.112;5.420;2024-02-15T07:43:57;101542.38;;;11.44;100.00
75418;BME280;63997;52.112;5.420;2024-02-15T07:46:26;101534.38;;;11.44;100.00
75418;BME280;63997;52.112;5.420;2024-02-15T07:48:52;101496.00;;;11.45;100.00
75418;BME280;63997;52.112;5.420;2024-02-15T07:51:21;101534.09;;;11.45;100.00
75418;BME280;63997;52.112;5.420;2024-02-15T07:53:48;101527.19;;;11.44;100.00
75418;BME280;63997;52.112;5.420;2024-02-15T07:56:17;101517.31;;;11.45;100.00
75418;BME280;63997;52.112;5.420;2024-02-15T07:58:48;101521.84;;;11.44;100.00
75418;BME280;63997;52.112;5.420;2024-02-15T08:01:20;101537.84;;;11.44;100.00
75418;BME280;63997;52.112;5.420;2024-02-15T08:03:52;101538.63;;;11.45;100.00
75418;BME280;63997;52.112;5.420;2024-02-15T08:06:23;101540.22;;;11.46;100.00
75418;BME280;63997;52.112;5.420;2024-02-15T08:08:55;101533.28;;;11.45;100.00
75418;BME280;63997;52.112;5.420;2024-02-15T08:11:22;101511.97;;;11.45;100.00
75418;BME280;63997;52.112;5.420;2024-02-15T08:13:51;101496.00;;;11.45;100.00
75418;BME280;63997;52.112;5.420;2024-02-15T08:16:21;101491.78;;;11.44;100.00
75418;BME280;63997;52.112;5.420;2024-02-15T08:18:54;101505.88;;;11.44;100.00
75418;BME280;63997;52.112;5.420;2024-02-15T08:21:26;101497.88;;;11.44;100.00
75418;BME280;63997;52.112;5.420;2024-02-15T08:23:55;101493.84;;;11.47;100.00
75418;BME280;63997;52.112;5.420;2024-02-15T08:26:22;101492.28;;;11.46;100.00
75418;BME280;63997;52.112;5.420;2024-02-15T08:28:49;101493.84;;;11.47;100.00
75418;BME280;63997;52.112;5.420;2024-02-15T08:31:16;101500.72;;;11.48;100.00
75418;BME280;63997;52.112;5.420;2024-02-15T08:33:43;101501.50;;;11.48;100.00
75418;BME280;63997;52.112;5.420;2024-02-15T08:36:12;101504.19;;;11.48;100.00
75418;BME280;63997;52.112;5.420;2024-02-15T08:38:41;101505.44;;;11.51;100.00
75418;BME280;63997;52.112;5.420;2024-02-15T08:41:09;101510.78;;;11.51;100.00
75418;BME280;63997;52.112;5.420;2024-02-15T08:43:38;101507.81;;;11.52;100.00
75418;BME280;63997;52.112;5.420;2024-02-15T08:46:11;101492.59;;;11.53;100.00
75418;BME280;63997;52.112;5.420;2024-02-15T08:48:38;101491.50;;;11.54;100.00
75418;BME280;63997;52.112;5.420;2024-02-15T08:51:05;101487.44;;;11.56;100.00
75418;BME280;63997;52.112;5.420;2024-02-15T08:53:35;101472.25;;;11.57;100.00
75418;BME280;63997;52.112;5.420;2024-02-15T08:56:05;101471.16;;;11.58;100.00
75418;BME280;63997;52.112;5.420;2024-02-15T08:58:32;101468.16;;;11.59;100.00
75418;BME280;63997;52.112;5.420;2024-02-15T09:00:59;101458.28;;;11.60;100.00
75418;BME280;63997;52.112;5.420;2024-02-15T09:03:25;101461.44;;;11.62;100.00
75418;BME280;63997;52.112;5.420;2024-02-15T09:05:52;101456.59;;;11.64;100.00
75418;BME280;63997;52.112;5.420;2024-02-15T09:08:19;101466.13;;;11.65;100.00
75418;BME280;63997;52.112;5.420;2024-02-15T09:10:49;101468.50;;;11.66;100.00
75418;BME280;63997;52.112;5.420;2024-02-15T09:13:16;101476.47;;;11.66;100.00
75418;BME280;63997;52.112;5.420;2024-02-15T09:15:42;101479.94;;;11.67;100.00
75418;BME280;63997;52.112;5.420;2024-02-15T09:18:09;101484.47;;;11.66;100.00
75418;BME280;63997;52.112;5.420;2024-02-15T09:20:38;101488.72;;;11.68;100.00
75418;BME280;63997;52.112;5.420;2024-02-15T09:23:11;101479.16;;;11.66;100.00
75418;BME280;63997;52.112;5.420;2024-02-15T09:25:38;101479.63;;;11.69;100.00
75418;BME280;63997;52.112;5.420;2024-02-15T09:28:05;101479.63;;;11.69;100.00
75418;BME280;63997;52.112;5.420;2024-02-15T09:30:32;101480.41;;;11.69;100.00
75418;BME280;63997;52.112;5.420;2024-02-15T09:33:02;101478.22;;;11.71;100.00
75418;BME280;63997;52.112;5.420;2024-02-15T09:35:35;101475.25;;;11.73;100.00
75418;BME280;63997;52.112;5.420;2024-02-15T09:38:06;101475.72;;;11.75;100.00
75418;BME280;63997;52.112;5.420;2024-02-15T09:40:35;101471.66;;;11.77;100.00
75418;BME280;63997;52.112;5.420;2024-02-15T09:43:02;101470.88;;;11.77;100.00
75418;BME280;63997;52.112;5.420;2024-02-15T09:45:29;101478.53;;;11.78;100.00
75418;BME280;63997;52.112;5.420;2024-02-15T09:48:04;101480.13;;;11.79;100.00
75418;BME280;63997;52.112;5.420;2024-02-15T09:50:34;101477.16;;;11.81;100.00
75418;BME280;63997;52.112;5.420;2024-02-15T09:53:01;101482.69;;;11.84;100.00
75418;BME280;63997;52.112;5.420;2024-02-15T09:55:29;101473.59;;;11.85;100.00
75418;BME280;63997;52.112;5.420;2024-02-15T09:57:56;101480.16;;;11.88;100.00
75418;BME280;63997;52.112;5.420;2024-02-15T10:00:22;101479.06;;;11.89;100.00
75418;BME280;63997;52.112;5.420;2024-02-15T10:02:50;101479.84;;;11.89;100.00
75418;BME280;63997;52.112;5.420;2024-02-15T10:05:19;101475.31;;;11.90;100.00
75418;BME280;63997;52.112;5.420;2024-02-15T10:07:47;101489.72;;;11.89;100.00
75418;BME280;63997;52.112;5.420;2024-02-15T10:10:15;101487.06;;;11.89;100.00
75418;BME280;63997;52.112;5.420;2024-02-15T10:12:50;101479.56;;;11.91;100.00
75418;BME280;63997;52.112;5.420;2024-02-15T10:15:39;101489.91;;;11.93;100.00
75418;BME280;63997;52.112;5.420;2024-02-15T10:18:10;101493.81;;;11.95;100.00
75418;BME280;63997;52.112;5.420;2024-02-15T10:20:39;101483.94;;;11.96;100.00
75418;BME280;63997;52.112;5.420;2024-02-15T10:25:37;101485.22;;;12.07;100.00
75418;BME280;63997;52.112;5.420;2024-02-15T10:28:08;101487.09;;;12.15;100.00
75418;BME280;63997;52.112;5.420;2024-02-15T10:30:42;101489.16;;;12.18;100.00
75418;BME280;63997;52.112;5.420;2024-02-15T10:33:29;101487.25;;;12.18;100.00
75418;BME280;63997;52.112;5.420;2024-02-15T10:36:09;101482.72;;;12.19;100.00
75418;BME280;63997;52.112;5.420;2024-02-15T10:38:37;101491.94;;;12.22;100.00
75418;BME280;63997;52.112;5.420;2024-02-15T10:41:06;101486.00;;;12.25;100.00
75418;BME280;63997;52.112;5.420;2024-02-15T10:43:33;101483.19;;;12.30;100.00
75418;BME280;63997;52.112;5.420;2024-02-15T10:46:00;101482.53;;;12.33;100.00
75418;BME280;63997;52.112;5.420;2024-02-15T10:48:27;101477.38;;;12.36;100.00
75418;BME280;63997;52.112;5.420;2024-02-15T10:50:59;101482.22;;;12.43;100.00
75418;BME280;63997;52.112;5.420;2024-02-15T10:53:27;101479.22;;;12.44;100.00
75418;BME280;63997;52.112;5.420;2024-02-15T10:58:33;101476.25;;;12.55;100.00
75418;BME280;63997;52.112;5.420;2024-02-15T11:01:06;101472.78;;;12.63;100.00
75418;BME280;63997;52.112;5.420;2024-02-15T11:03:36;101468.38;;;12.67;100.00
75418;BME280;63997;52.112;5.420;2024-02-15T11:06:05;101462.88;;;12.72;100.00
75418;BME280;63997;52.112;5.420;2024-02-15T11:08:34;101471.81;;;12.76;100.00
75418;BME280;63997;52.112;5.420;2024-02-15T11:11:01;101464.25;;;12.78;100.00
75418;BME280;63997;52.112;5.420;2024-02-15T11:13:31;101472.44;;;12.82;100.00
75418;BME280;63997;52.112;5.420;2024-02-15T11:15:57;101462.06;;;12.80;100.00
75418;BME280;63997;52.112;5.420;2024-02-15T11:18:47;101460.81;;;12.78;100.00
75418;BME280;63997;52.112;5.420;2024-02-15T11:24:33;101474.16;;;12.78;100.00
75418;BME280;63997;52.112;5.420;2024-02-15T11:27:03;101469.13;;;12.76;100.00
75418;BME280;63997;52.112;5.420;2024-02-15T11:29:59;101458.13;;;12.78;100.00
75418;BME280;63997;52.112;5.420;2024-02-15T11:32:48;101462.38;;;12.79;100.00
75418;BME280;63997;52.112;5.420;2024-02-15T11:35:21;101458.47;;;12.76;100.00
75418;BME280;63997;52.112;5.420;2024-02-15T11:43:08;101450.41;;;12.85;100.00
75418;BME280;63997;52.112;5.420;2024-02-15T11:45:35;101448.22;;;12.87;100.00
75418;BME280;63997;52.112;5.420;2024-02-15T11:48:08;101445.69;;;12.90;100.00
75418;BME280;63997;52.112;5.420;2024-02-15T11:50:40;101455.75;;;12.93;100.00
75418;BME280;63997;52.112;5.420;2024-02-15T11:53:08;101441.63;;;12.93;100.00
75418;BME280;63997;52.112;5.420;2024-02-15T11:55:40;101432.34;;;12.90;100.00
75418;BME280;63997;52.112;5.420;2024-02-15T11:58:26;101436.59;;;12.91;100.00
75418;BME280;63997;52.112;5.420;2024-02-15T12:01:08;101434.38;;;12.93;100.00
75418;BME280;63997;52.112;5.420;2024-02-15T12:03:54;101434.72;;;12.92;100.00
75418;BME280;63997;52.112;5.420;2024-02-15T12:06:40;101433.16;;;12.91;100.00
75418;BME280;63997;52.112;5.420;2024-02-15T12:09:26;101431.25;;;12.91;100.00
75418;BME280;63997;52.112;5.420;2024-02-15T12:12:11;101433.28;;;12.94;100.00
75418;BME280;63997;52.112;5.420;2024-02-15T12:15:00;101424.63;;;12.97;100.00
75418;BME280;63997;52.112;5.420;2024-02-15T12:17:46;101421.31;;;13.01;100.00
75418;BME280;63997;52.112;5.420;2024-02-15T12:20:31;101414.56;;;13.03;100.00
75418;BME280;63997;52.112;5.420;2024-02-15T12:22:58;101414.69;;;13.07;100.00
75418;BME280;63997;52.112;5.420;2024-02-15T12:25:27;101415.16;;;13.09;100.00
75418;BME280;63997;52.112;5.420;2024-02-15T12:27:55;101409.16;;;13.12;100.00
75418;BME280;63997;52.112;5.420;2024-02-15T12:30:22;101400.53;;;13.15;100.00
75418;BME280;63997;52.112;5.420;2024-02-15T12:32:50;101395.47;;;13.22;100.00
75418;BME280;63997;52.112;5.420;2024-02-15T12:35:21;101391.84;;;13.27;100.00
75418;BME280;63997;52.112;5.420;2024-02-15T12:38:02;101379.72;;;13.29;100.00
75418;BME280;63997;52.112;5.420;2024-02-15T12:40:36;101387.53;;;13.34;100.00
75418;BME280;63997;52.112;5.420;2024-02-15T12:43:05;101378.56;;;13.39;100.00
75418;BME280;63997;52.112;5.420;2024-02-15T12:45:32;101376.81;;;13.43;100.00
75418;BME280;63997;52.112;5.420;2024-02-15T12:48:04;101376.75;;;13.52;100.00
75418;BME280;63997;52.112;5.420;2024-02-15T12:50:33;101371.53;;;13.55;100.00
75418;BME280;63997;52.112;5.420;2024-02-15T12:53:00;101365.66;;;13.62;100.00
75418;BME280;63997;52.112;5.420;2024-02-15T12:55:31;101359.94;;;13.72;100.00
75418;BME280;63997;52.112;5.420;2024-02-15T12:58:03;101366.44;;;13.83;100.00
75418;BME280;63997;52.112;5.420;2024-02-15T13:00:31;101367.59;;;13.94;100.00
75418;BME280;63997;52.112;5.420;2024-02-15T13:03:02;101360.94;;;14.00;100.00
75418;BME280;63997;52.112;5.420;2024-02-15T13:05:30;101356.41;;;14.13;100.00
75418;BME280;63997;52.112;5.420;2024-02-15T13:07:57;101351.75;;;14.22;100.00